Аэропорт: Гостомель. Киев

ICAO: UKKM

METAR:
2021-10-23 00:30:00
UKKM 230030Z AUTO 22003MPS 9999 // NCD 08/00 Q1012
METAR:
Информация по данной станции не доступна